Time;durP1;ratioP1;P1;durP2;ratioP2;P2;SDS_P1;SDS_P2;PMS_P1;PMS_P2;Temp;Humidity;BMP_temperature;BMP_pressure;BME280_temperature;BME280_humidity;BME280_pressure;Samples;Min_cycle;Max_cycle;Signal;HPM_P1;HPM_P2
2022/04/27 00:01:36;;;;;;;14.50;13.30;;;8.50;99.90;;;;;;5096262;28;20254;-78
2022/04/27 00:04:03;;;;;;;15.83;14.53;;;8.60;99.90;;;;;;5093554;28;20291;-78
2022/04/27 00:06:30;;;;;;;15.17;13.93;;;8.50;99.90;;;;;;5089521;28;20207;-78
2022/04/27 00:08:57;;;;;;;16.67;15.17;;;8.50;99.90;;;;;;5094644;28;20246;-77
2022/04/27 00:11:25;;;;;;;16.83;15.33;;;8.60;99.90;;;;;;5090611;28;20445;-78
2022/04/27 00:13:52;;;;;;;14.20;12.90;;;8.50;99.90;;;;;;5095571;28;20206;-78
2022/04/27 00:16:19;;;;;;;14.53;13.13;;;8.60;99.90;;;;;;5092046;28;20193;-78
2022/04/27 00:18:47;;;;;;;11.73;9.60;;;8.50;99.90;;;;;;5096077;28;20229;-78
2022/04/27 00:21:13;;;;;;;18.07;16.47;;;8.60;99.90;;;;;;5093321;28;20280;-77
2022/04/27 00:23:40;;;;;;;17.23;15.83;;;8.60;99.90;;;;;;5080002;28;20291;-78
2022/04/27 00:26:07;;;;;;;16.47;15.17;;;8.60;99.90;;;;;;5089906;28;20208;-77
2022/04/27 00:28:36;;;;;;;17.80;16.40;;;8.60;99.90;;;;;;5090320;28;20222;-78
2022/04/27 00:31:03;;;;;;;11.70;9.20;;;8.60;99.90;;;;;;5095094;28;20199;-77
2022/04/27 00:33:31;;;;;;;13.37;12.07;;;8.60;99.90;;;;;;5086234;28;20292;-78
2022/04/27 00:35:58;;;;;;;14.17;12.77;;;8.60;99.90;;;;;;5096117;28;20209;-79
2022/04/27 00:38:25;;;;;;;11.90;10.80;;;8.50;99.90;;;;;;5090988;28;20229;-78
2022/04/27 00:40:52;;;;;;;13.20;12.00;;;8.50;99.90;;;;;;5089463;28;20291;-78
2022/04/27 00:43:37;;;;;;;11.53;10.33;;;8.50;99.90;;;;;;5088512;28;20196;-77
2022/04/27 00:46:04;;;;;;;10.27;9.27;;;8.50;99.90;;;;;;5098984;28;20306;-77
2022/04/27 00:48:31;;;;;;;12.40;11.30;;;8.40;99.90;;;;;;5090027;28;20231;-78
2022/04/27 00:51:02;;;;;;;17.30;15.80;;;8.40;99.90;;;;;;5091101;28;20197;-78
2022/04/27 00:53:29;;;;;;;15.87;14.67;;;8.50;99.90;;;;;;5090764;28;20664;-77
2022/04/27 00:55:57;;;;;;;17.17;15.87;;;8.50;99.90;;;;;;5093478;28;20204;-78
2022/04/27 00:58:26;;;;;;;16.27;14.87;;;8.40;99.90;;;;;;5090480;28;20216;-77
2022/04/27 01:00:55;;;;;;;15.63;14.30;;;8.40;99.90;;;;;;5095004;28;20196;-78
2022/04/27 01:03:23;;;;;;;16.97;15.67;;;8.40;99.90;;;;;;5090510;28;20200;-78
2022/04/27 01:05:50;;;;;;;11.00;9.90;;;8.40;99.90;;;;;;5091403;28;20284;-78
2022/04/27 01:08:19;;;;;;;10.73;8.67;;;8.50;99.90;;;;;;5082863;28;20806;-78
2022/04/27 01:10:48;;;;;;;9.83;8.80;;;8.50;99.90;;;;;;5088754;28;20206;-78
2022/04/27 01:13:16;;;;;;;9.93;8.20;;;8.50;99.90;;;;;;5088584;28;20204;-78
2022/04/27 01:15:45;;;;;;;10.97;7.97;;;8.50;99.90;;;;;;5097063;28;20222;-78
2022/04/27 01:18:15;;;;;;;11.60;9.23;;;8.50;99.90;;;;;;5091520;28;20237;-78
2022/04/27 01:20:46;;;;;;;9.73;8.07;;;8.40;99.90;;;;;;5089158;28;20195;-77
2022/04/27 01:23:16;;;;;;;10.13;8.40;;;8.40;99.90;;;;;;5091265;28;20218;-77
2022/04/27 01:25:49;;;;;;;9.60;8.60;;;8.40;99.90;;;;;;5085291;28;20248;-78
2022/04/27 01:28:17;;;;;;;11.53;8.70;;;8.30;99.90;;;;;;5090489;28;20224;-78
2022/04/27 01:30:45;;;;;;;10.00;8.17;;;8.30;99.90;;;;;;5094064;28;20653;-78
2022/04/27 01:33:12;;;;;;;13.07;10.73;;;8.40;99.90;;;;;;5091221;28;20201;-78
2022/04/27 01:35:40;;;;;;;11.20;9.03;;;8.40;99.90;;;;;;5114716;28;20257;-78
2022/04/27 01:38:09;;;;;;;11.27;9.60;;;8.40;99.90;;;;;;5088832;28;20207;-78
2022/04/27 01:40:36;;;;;;;13.30;10.43;;;8.40;99.90;;;;;;5089749;28;20251;-79
2022/04/27 01:43:05;;;;;;;11.23;9.83;;;8.40;99.90;;;;;;5093026;28;20256;-79
2022/04/27 01:45:32;;;;;;;10.37;9.10;;;8.40;99.90;;;;;;5091769;28;20697;-78
2022/04/27 01:50:26;;;;;;;10.77;8.87;;;8.40;99.90;;;;;;5047154;28;20227;-77
2022/04/27 01:55:39;;;;;;;10.33;8.23;;;8.40;99.90;;;;;;5050651;28;20590;-76
2022/04/27 01:58:07;;;;;;;11.20;9.50;;;8.40;99.90;;;;;;5047260;28;20283;-76
2022/04/27 02:00:34;;;;;;;11.00;9.00;;;8.40;99.90;;;;;;5033500;28;20276;-77
2022/04/27 02:03:02;;;;;;;10.40;8.70;;;8.40;99.90;;;;;;5033820;28;20256;-77
2022/04/27 02:05:29;;;;;;;8.80;7.73;;;8.30;99.90;;;;;;5034095;28;20616;-76
2022/04/27 02:07:56;;;;;;;10.70;8.83;;;8.40;99.90;;;;;;5033685;28;20260;-76
2022/04/27 02:10:23;;;;;;;10.43;8.60;;;8.30;99.90;;;;;;5033600;28;20221;-76
2022/04/27 02:12:52;;;;;;;11.07;9.97;;;8.30;99.90;;;;;;5033609;28;20205;-77
2022/04/27 02:15:22;;;;;;;11.40;8.73;;;8.30;99.90;;;;;;5033450;28;20194;-76
2022/04/27 02:18:00;;;;;;;12.27;9.20;;;8.30;99.90;;;;;;5033507;28;20194;-76
2022/04/27 02:20:29;;;;;;;11.20;9.93;;;8.30;99.90;;;;;;5066909;28;20276;-76
2022/04/27 02:22:57;;;;;;;9.10;7.90;;;8.30;99.90;;;;;;5033694;28;20269;-77
2022/04/27 02:25:24;;;;;;;9.07;8.00;;;8.30;99.90;;;;;;5034027;28;20224;-76
2022/04/27 02:27:53;;;;;;;10.33;9.03;;;8.30;99.90;;;;;;5033327;28;20204;-76
2022/04/27 02:30:20;;;;;;;10.47;9.27;;;8.30;99.90;;;;;;5033131;28;20233;-77
2022/04/27 02:32:48;;;;;;;10.53;9.43;;;8.30;99.90;;;;;;5033447;28;20690;-77
2022/04/27 02:35:16;;;;;;;11.37;9.97;;;8.30;99.90;;;;;;5033403;28;20667;-76
2022/04/27 02:37:43;;;;;;;10.27;8.67;;;8.30;99.90;;;;;;5033571;28;20225;-76
2022/04/27 02:40:11;;;;;;;11.57;9.83;;;8.30;99.90;;;;;;5033463;28;20219;-78
2022/04/27 02:42:39;;;;;;;13.20;10.93;;;8.30;99.90;;;;;;5024405;28;20206;-78
2022/04/27 02:45:08;;;;;;;11.40;9.37;;;8.30;99.90;;;;;;5070571;28;20235;-78
2022/04/27 02:47:37;;;;;;;9.43;8.30;;;8.30;99.90;;;;;;5052550;28;20223;-80
2022/04/27 02:52:56;;;;;;;12.13;10.30;;;8.30;99.90;;;;;;5015313;28;20196;-79
2022/04/27 02:55:27;;;;;;;12.00;10.47;;;8.30;99.90;;;;;;5082045;28;20239;-79
2022/04/27 02:57:54;;;;;;;9.97;8.97;;;8.20;99.90;;;;;;5084785;28;20233;-80
2022/04/27 03:00:25;;;;;;;13.27;10.63;;;8.20;99.90;;;;;;5053456;28;20233;-78
2022/04/27 03:02:53;;;;;;;14.43;11.47;;;8.20;99.90;;;;;;5087031;28;20206;-79
2022/04/27 03:05:23;;;;;;;12.13;10.47;;;8.20;99.90;;;;;;5053331;28;20207;-78
2022/04/27 03:07:50;;;;;;;12.90;10.77;;;8.20;99.90;;;;;;5053510;28;20249;-80
2022/04/27 03:10:20;;;;;;;13.13;11.37;;;8.10;99.90;;;;;;5086753;28;20672;-79
2022/04/27 03:12:47;;;;;;;11.37;9.63;;;8.10;99.90;;;;;;5086916;28;20198;-80
2022/04/27 03:15:14;;;;;;;15.30;11.30;;;8.10;99.90;;;;;;5086765;28;20285;-77
2022/04/27 03:17:43;;;;;;;15.10;12.43;;;8.10;99.90;;;;;;5052576;28;20228;-80
2022/04/27 03:20:11;;;;;;;15.33;11.70;;;8.20;99.90;;;;;;5053348;28;20220;-79
2022/04/27 03:22:39;;;;;;;13.63;10.70;;;8.20;99.90;;;;;;5065584;28;20201;-80
2022/04/27 03:25:08;;;;;;;14.67;10.57;;;8.20;99.90;;;;;;5053657;28;20204;-80
2022/04/27 03:27:35;;;;;;;12.97;10.60;;;8.30;99.90;;;;;;5086777;28;20303;-80
2022/04/27 03:30:02;;;;;;;13.97;10.93;;;8.30;99.90;;;;;;5053354;28;20237;-79
2022/04/27 03:32:31;;;;;;;11.70;10.00;;;8.30;99.90;;;;;;5052902;28;20206;-81
2022/04/27 03:35:03;;;;;;;16.37;11.53;;;8.30;99.90;;;;;;5076261;28;20576;-79
2022/04/27 03:37:34;;;;;;;12.80;10.63;;;8.30;99.90;;;;;;5053241;28;20279;-81
2022/04/27 03:40:02;;;;;;;12.47;11.03;;;8.30;99.90;;;;;;5048372;28;20753;-81
2022/04/27 03:42:29;;;;;;;13.97;11.77;;;8.30;99.90;;;;;;5053261;28;20236;-81
2022/04/27 03:45:02;;;;;;;14.20;12.17;;;8.30;99.90;;;;;;5052824;28;20654;-78
2022/04/27 03:47:37;;;;;;;15.70;12.70;;;8.30;99.90;;;;;;5086268;28;20288;-79
2022/04/27 03:50:07;;;;;;;13.83;11.60;;;8.30;99.90;;;;;;5086584;28;20229;-77
2022/04/27 03:52:42;;;;;;;15.77;12.10;;;8.20;99.90;;;;;;5045877;28;20293;-78
2022/04/27 03:55:10;;;;;;;13.23;11.23;;;8.20;99.90;;;;;;5053075;28;20203;-79
2022/04/27 03:57:40;;;;;;;12.83;10.63;;;8.20;99.90;;;;;;5073925;28;20213;-78
2022/04/27 04:00:09;;;;;;;12.90;11.17;;;8.10;99.90;;;;;;5051900;28;20309;-79
2022/04/27 04:02:40;;;;;;;14.07;11.80;;;8.00;99.90;;;;;;5046652;28;20272;-79
2022/04/27 04:05:10;;;;;;;13.50;12.10;;;8.00;99.90;;;;;;5052705;28;20208;-79
2022/04/27 04:07:37;;;;;;;18.10;13.97;;;7.90;99.90;;;;;;5052612;28;20207;-78
2022/04/27 04:10:06;;;;;;;17.57;14.17;;;8.00;99.90;;;;;;5052294;28;20218;-78
2022/04/27 04:12:34;;;;;;;15.13;11.47;;;8.00;99.90;;;;;;5052130;28;20735;-78
2022/04/27 04:15:20;;;;;;;15.50;12.73;;;8.00;99.90;;;;;;5052039;28;20557;-78
2022/04/27 04:18:08;;;;;;;14.50;12.53;;;8.10;99.90;;;;;;5049549;28;20207;-78
2022/04/27 04:20:40;;;;;;;15.17;11.50;;;8.00;99.90;;;;;;5052316;28;20283;-78
2022/04/27 04:23:20;;;;;;;14.00;11.37;;;8.00;99.90;;;;;;5052446;28;20292;-78
2022/04/27 04:28:46;;;;;;;13.70;11.47;;;8.10;99.90;;;;;;5045429;28;20220;-79
2022/04/27 04:31:14;;;;;;;16.17;12.77;;;8.10;99.90;;;;;;5052054;28;20606;-78
2022/04/27 04:33:41;;;;;;;17.20;14.07;;;8.20;99.90;;;;;;5053691;28;20202;-78
2022/04/27 04:36:11;;;;;;;15.50;12.90;;;8.20;99.90;;;;;;5052336;28;20716;-78
2022/04/27 04:38:40;;;;;;;12.30;11.00;;;8.20;99.90;;;;;;5044594;28;20309;-79
2022/04/27 04:41:09;;;;;;;14.90;12.13;;;8.20;99.90;;;;;;5052279;28;20198;-78
2022/04/27 04:43:44;;;;;;;14.47;10.50;;;8.30;99.90;;;;;;5052201;28;20209;-78
2022/04/27 04:46:11;;;;;;;13.70;10.50;;;8.30;99.90;;;;;;5052112;28;20202;-78
2022/04/27 04:48:47;;;;;;;13.03;11.60;;;8.40;99.90;;;;;;5051728;28;20596;-79
2022/04/27 04:51:34;;;;;;;12.90;10.70;;;8.40;99.90;;;;;;5052870;28;20316;-78
2022/04/27 04:54:20;;;;;;;14.87;11.93;;;8.50;99.90;;;;;;5054014;28;20191;-78
2022/04/27 04:56:56;;;;;;;14.47;11.53;;;8.60;99.90;;;;;;5053108;28;20226;-78
2022/04/27 04:59:42;;;;;;;12.87;11.27;;;8.60;99.90;;;;;;5046261;28;20326;-78
2022/04/27 05:02:15;;;;;;;13.00;11.60;;;8.60;99.90;;;;;;5052905;28;20201;-79
2022/04/27 05:05:09;;;;;;;13.33;11.77;;;8.50;99.90;;;;;;5049661;28;20213;-79
2022/04/27 05:07:37;;;;;;;11.50;10.10;;;8.40;99.90;;;;;;5052841;28;20572;-79
2022/04/27 05:10:22;;;;;;;12.83;10.50;;;8.40;99.90;;;;;;5052926;28;20218;-78
2022/04/27 05:12:59;;;;;;;13.67;10.47;;;8.40;99.90;;;;;;5046214;28;20273;-79
2022/04/27 05:15:26;;;;;;;12.13;10.47;;;8.60;99.90;;;;;;5052347;28;20226;-78
2022/04/27 05:18:12;;;;;;;18.07;16.13;;;8.90;99.90;;;;;;5048242;28;20205;-78
2022/04/27 05:21:05;;;;;;;15.83;13.00;;;9.40;99.90;;;;;;5033466;28;20580;-79
2022/04/27 05:23:48;;;;;;;14.13;11.53;;;10.00;99.90;;;;;;5051198;28;20606;-79
2022/04/27 05:26:25;;;;;;;13.07;11.77;;;10.60;99.90;;;;;;5051361;28;20202;-78
2022/04/27 05:31:58;;;;;;;17.37;15.87;;;11.60;99.90;;;;;;5045468;28;20574;-79
2022/04/27 05:34:40;;;;;;;14.67;13.37;;;12.20;99.90;;;;;;5048462;28;20847;-79
2022/04/27 05:37:22;;;;;;;12.57;11.37;;;12.60;99.90;;;;;;5052831;28;20287;-79
2022/04/27 05:40:11;;;;;;;14.80;13.50;;;12.70;99.90;;;;;;5053148;28;20824;-79
2022/04/27 05:42:50;;;;;;;14.10;12.80;;;12.40;99.90;;;;;;5050682;28;20201;-79
2022/04/27 05:45:40;;;;;;;11.87;10.73;;;12.60;99.90;;;;;;5039251;28;20294;-79
2022/04/27 05:48:27;;;;;;;17.67;16.37;;;13.10;99.90;;;;;;5052033;28;20257;-79
2022/04/27 05:51:30;;;;;;;12.23;10.13;;;13.40;99.90;;;;;;5038439;28;20314;-79
2022/04/27 05:54:16;;;;;;;16.47;15.17;;;13.50;99.90;;;;;;5053115;28;20246;-78
2022/04/27 05:57:05;;;;;;;11.97;10.70;;;13.40;99.90;;;;;;5051276;28;20199;-79
2022/04/27 05:59:44;;;;;;;12.10;10.90;;;13.20;99.90;;;;;;5050886;28;20314;-79
2022/04/27 06:02:43;;;;;;;12.37;11.07;;;13.00;99.90;;;;;;5044870;28;20238;-79
2022/04/27 06:05:11;;;;;;;12.43;11.13;;;12.70;99.90;;;;;;5050562;28;20309;-78
2022/04/27 06:07:40;;;;;;;17.03;15.47;;;12.40;99.90;;;;;;5050659;28;20198;-78
2022/04/27 06:10:12;;;;;;;13.97;12.70;;;12.10;99.90;;;;;;5053953;28;20215;-78
2022/04/27 06:12:53;;;;;;;12.03;10.40;;;12.00;99.90;;;;;;5045834;28;20621;-80
2022/04/27 06:15:38;;;;;;;11.70;10.50;;;11.90;99.90;;;;;;5055163;28;20212;-79
2022/04/27 06:18:14;;;;;;;16.73;15.23;;;12.00;99.90;;;;;;5050754;28;20718;-79
2022/04/27 06:20:42;;;;;;;15.17;13.87;;;12.20;99.90;;;;;;5050834;28;20195;-79
2022/04/27 06:23:10;;;;;;;16.97;15.63;;;12.50;99.90;;;;;;5077668;28;20672;-79
2022/04/27 06:25:39;;;;;;;11.30;10.10;;;12.30;99.90;;;;;;5044062;28;20232;-80
2022/04/27 06:28:13;;;;;;;11.67;10.47;;;12.20;99.90;;;;;;5076920;28;20201;-79
2022/04/27 06:30:40;;;;;;;12.47;11.10;;;12.10;99.90;;;;;;5050131;28;20211;-79
2022/04/27 06:33:07;;;;;;;12.33;11.10;;;12.00;99.90;;;;;;5050460;28;20210;-80
2022/04/27 06:35:34;;;;;;;14.53;13.23;;;11.70;99.90;;;;;;5050654;28;20198;-79
2022/04/27 06:38:10;;;;;;;18.40;16.87;;;11.60;99.90;;;;;;5050110;28;20229;-79
2022/04/27 06:40:37;;;;;;;13.97;12.57;;;11.50;99.90;;;;;;5050017;28;20243;-80
2022/04/27 06:43:04;;;;;;;17.53;16.03;;;11.40;99.90;;;;;;5050015;28;20213;-79
2022/04/27 06:45:55;;;;;;;17.83;16.17;;;11.50;99.90;;;;;;5026525;28;20403;-79
2022/04/27 06:48:41;;;;;;;17.40;15.80;;;11.70;99.90;;;;;;5044265;28;20245;-79
2022/04/27 06:51:27;;;;;;;16.70;15.10;;;11.80;99.90;;;;;;5051189;28;20232;-79
2022/04/27 06:54:16;;;;;;;16.00;14.60;;;12.00;99.90;;;;;;5051318;28;20204;-79
2022/04/27 06:57:02;;;;;;;14.33;13.03;;;12.10;99.90;;;;;;5052227;28;20243;-80
2022/04/27 06:59:58;;;;;;;16.60;15.00;;;12.20;99.90;;;;;;5040640;28;20217;-79
2022/04/27 07:02:28;;;;;;;12.20;10.93;;;12.30;99.90;;;;;;5050322;28;20207;-79
2022/04/27 07:05:00;;;;;;;17.93;16.43;;;12.40;99.90;;;;;;5049767;28;20209;-79
2022/04/27 07:07:27;;;;;;;12.00;10.80;;;12.40;99.90;;;;;;5049717;28;20203;-79
2022/04/27 07:09:54;;;;;;;17.10;15.60;;;12.50;99.90;;;;;;5049494;28;20265;-79
2022/04/27 07:12:21;;;;;;;14.73;13.33;;;12.50;99.90;;;;;;5049590;28;20203;-79
2022/04/27 07:14:48;;;;;;;13.63;11.53;;;12.50;99.90;;;;;;5050045;28;20227;-79
2022/04/27 07:17:16;;;;;;;12.60;11.37;;;12.60;99.90;;;;;;5050426;28;20270;-79
2022/04/27 07:19:44;;;;;;;14.83;13.43;;;12.80;99.90;;;;;;5050258;28;20219;-80
2022/04/27 07:22:12;;;;;;;10.90;9.80;;;13.00;99.90;;;;;;5050264;28;20296;-79
2022/04/27 07:24:39;;;;;;;11.23;9.20;;;13.40;99.90;;;;;;5049854;28;20308;-79
2022/04/27 07:27:07;;;;;;;12.83;10.83;;;13.40;99.90;;;;;;5050225;28;20207;-79
2022/04/27 07:29:34;;;;;;;9.97;8.93;;;13.60;99.90;;;;;;5051829;28;20314;-80
2022/04/27 07:32:01;;;;;;;9.97;8.97;;;13.50;99.90;;;;;;5049281;28;20280;-79
2022/04/27 07:34:30;;;;;;;12.07;10.73;;;13.40;99.90;;;;;;5083309;28;20294;-79
2022/04/27 07:36:58;;;;;;;11.30;10.30;;;13.30;99.90;;;;;;5051716;28;20230;-80
2022/04/27 07:39:25;;;;;;;9.03;8.13;;;13.00;99.90;;;;;;5053494;28;20223;-80
2022/04/27 07:41:52;;;;;;;9.57;8.67;;;13.00;99.90;;;;;;5053794;28;20196;-79
2022/04/27 07:44:19;;;;;;;10.67;9.70;;;13.10;99.90;;;;;;5054841;28;20202;-79
2022/04/27 07:46:48;;;;;;;12.40;11.20;;;13.20;99.90;;;;;;5053993;28;20209;-79
2022/04/27 07:49:15;;;;;;;11.77;10.83;;;13.50;99.90;;;;;;5055249;28;20315;-81
2022/04/27 07:51:42;;;;;;;14.27;13.07;;;14.00;99.90;;;;;;5054077;28;20222;-81
2022/04/27 07:54:11;;;;;;;10.47;8.50;;;14.30;99.90;;;;;;5054164;28;20207;-81
2022/04/27 07:56:38;;;;;;;9.33;8.47;;;14.60;99.90;;;;;;5053262;28;20240;-82
2022/04/27 07:59:05;;;;;;;10.73;9.73;;;15.10;99.90;;;;;;5052986;28;20687;-82
2022/04/27 08:01:32;;;;;;;14.00;12.90;;;15.80;99.90;;;;;;5053188;28;20675;-81
2022/04/27 08:03:59;;;;;;;8.67;7.87;;;16.20;99.90;;;;;;5053613;28;20203;-81
2022/04/27 08:06:26;;;;;;;12.33;11.33;;;15.90;99.90;;;;;;5052690;28;20205;-81
2022/04/27 08:08:53;;;;;;;13.57;12.47;;;16.20;99.90;;;;;;5052818;28;20258;-82
2022/04/27 08:11:22;;;;;;;9.33;8.43;;;16.00;99.90;;;;;;5051890;28;20190;-82
2022/04/27 08:13:49;;;;;;;12.80;11.80;;;16.30;99.90;;;;;;5052619;28;20201;-81
2022/04/27 08:16:16;;;;;;;10.67;9.67;;;16.30;99.90;;;;;;5052865;28;20642;-82
2022/04/27 08:18:43;;;;;;;9.70;8.80;;;16.50;99.90;;;;;;5052799;28;20223;-81
2022/04/27 08:21:16;;;;;;;10.57;9.67;;;16.60;99.90;;;;;;5052168;28;20784;-81
2022/04/27 08:23:44;;;;;;;9.03;8.13;;;17.00;99.90;;;;;;5052550;28;20207;-82
2022/04/27 08:26:11;;;;;;;8.43;7.40;;;16.30;99.90;;;;;;5052315;28;20211;-81
2022/04/27 08:28:41;;;;;;;11.20;10.27;;;15.70;99.90;;;;;;5086467;28;20317;-82
2022/04/27 08:31:10;;;;;;;11.90;11.00;;;15.30;99.90;;;;;;5052634;28;20196;-81
2022/04/27 08:33:37;;;;;;;8.80;7.77;;;14.90;99.90;;;;;;5045243;28;20308;-82
2022/04/27 08:36:05;;;;;;;8.33;7.37;;;15.40;99.90;;;;;;5053773;28;20283;-81
2022/04/27 08:38:34;;;;;;;6.93;6.23;;;16.40;99.90;;;;;;5054576;28;20599;-82
2022/04/27 08:41:01;;;;;;;11.60;10.70;;;17.40;99.90;;;;;;5053896;28;20803;-82
2022/04/27 08:43:28;;;;;;;10.03;9.23;;;17.60;99.90;;;;;;5054348;28;20233;-82
2022/04/27 08:45:56;;;;;;;10.33;9.50;;;18.30;99.90;;;;;;5053063;28;20203;-82
2022/04/27 08:48:23;;;;;;;10.30;9.33;;;18.50;99.90;;;;;;5050904;28;20224;-82
2022/04/27 08:50:52;;;;;;;11.03;10.03;;;18.10;99.90;;;;;;5051628;28;20193;-82
2022/04/27 08:53:19;;;;;;;6.43;5.63;;;17.80;99.90;;;;;;5051964;28;20208;-81
2022/04/27 08:55:52;;;;;;;10.43;9.73;;;18.50;99.90;;;;;;5052788;28;20219;-82
2022/04/27 08:58:20;;;;;;;9.40;8.70;;;18.90;99.90;;;;;;5051799;28;20197;-82
2022/04/27 09:00:48;;;;;;;6.80;6.20;;;18.80;99.90;;;;;;5069909;28;20677;-83
2022/04/27 09:03:24;;;;;;;8.80;8.10;;;19.00;99.90;;;;;;5051828;28;20233;-82
2022/04/27 09:05:53;;;;;;;6.60;6.00;;;18.90;99.90;;;;;;5051732;28;20198;-82
2022/04/27 09:08:20;;;;;;;11.03;10.20;;;18.80;99.90;;;;;;5051580;28;20222;-82
2022/04/27 09:10:48;;;;;;;10.97;10.17;;;17.90;99.90;;;;;;5050995;28;20340;-82
2022/04/27 09:13:15;;;;;;;10.97;10.17;;;16.60;99.90;;;;;;5051525;28;20205;-82
2022/04/27 09:15:42;;;;;;;11.63;10.83;;;16.00;99.90;;;;;;5051554;28;20199;-82
2022/04/27 09:21:13;;;;;;;11.53;10.70;;;16.20;99.90;;;;;;5045541;28;20211;-82
2022/04/27 09:23:41;;;;;;;10.33;9.63;;;17.20;99.90;;;;;;5050978;28;20199;-82
2022/04/27 09:26:19;;;;;;;10.73;9.93;;;17.30;99.90;;;;;;5051872;28;20238;-82
2022/04/27 09:28:48;;;;;;;10.57;9.70;;;17.30;99.90;;;;;;5078002;28;20222;-82
2022/04/27 09:31:29;;;;;;;10.70;9.90;;;17.20;99.90;;;;;;5051091;28;20204;-82
2022/04/27 09:34:00;;;;;;;9.90;9.20;;;16.90;99.90;;;;;;5051145;28;20570;-82
2022/04/27 09:36:29;;;;;;;10.13;9.33;;;16.90;99.90;;;;;;5050937;28;20196;-82
2022/04/27 09:38:58;;;;;;;10.50;9.80;;;17.10;99.90;;;;;;5052310;28;20910;-82
2022/04/27 09:41:39;;;;;;;9.70;9.10;;;17.10;99.90;;;;;;5051062;28;20271;-82
2022/04/27 09:44:06;;;;;;;8.27;7.70;;;16.90;99.90;;;;;;5051169;28;20200;-82
2022/04/27 09:46:40;;;;;;;8.93;8.20;;;17.30;99.90;;;;;;5051790;28;20199;-82
2022/04/27 09:49:11;;;;;;;7.93;7.33;;;17.10;99.90;;;;;;5052613;28;20234;-81
2022/04/27 09:51:47;;;;;;;9.43;8.73;;;16.60;99.90;;;;;;5050752;28;20195;-82
2022/04/27 09:54:19;;;;;;;9.73;9.03;;;16.50;99.90;;;;;;5050980;28;20200;-81
2022/04/27 09:56:50;;;;;;;9.80;9.07;;;16.70;99.90;;;;;;5051186;28;20203;-82
2022/04/27 09:59:20;;;;;;;10.30;9.60;;;16.30;99.90;;;;;;5050781;28;20216;-82
2022/04/27 10:01:49;;;;;;;10.83;10.10;;;16.30;99.90;;;;;;5050794;28;20223;-81
2022/04/27 10:04:20;;;;;;;6.10;5.60;;;16.50;99.90;;;;;;5073528;28;20209;-83
2022/04/27 10:06:49;;;;;;;6.63;6.00;;;16.80;99.90;;;;;;5050603;28;20208;-81
2022/04/27 10:09:16;;;;;;;6.73;6.13;;;16.80;99.90;;;;;;5049746;28;20223;-82
2022/04/27 10:11:44;;;;;;;6.50;5.90;;;16.70;99.90;;;;;;5050342;28;20203;-82
2022/04/27 10:14:11;;;;;;;6.10;5.60;;;16.80;99.90;;;;;;5050556;28;20219;-81
2022/04/27 10:16:39;;;;;;;3.97;3.67;;;16.50;99.90;;;;;;5071400;28;20195;-81
2022/04/27 10:19:10;;;;;;;4.80;4.40;;;16.40;99.90;;;;;;5054425;28;20230;-81
2022/04/27 10:21:43;;;;;;;8.20;7.60;;;16.80;99.90;;;;;;5046158;28;20207;-82
2022/04/27 10:24:12;;;;;;;8.23;7.53;;;17.00;99.90;;;;;;5051172;28;20200;-82
2022/04/27 10:26:40;;;;;;;6.13;5.53;;;16.80;99.90;;;;;;5050761;28;20217;-81
2022/04/27 10:29:09;;;;;;;4.57;4.17;;;16.70;99.90;;;;;;5054453;28;20227;-81
2022/04/27 10:31:59;;;;;;;8.77;8.17;;;16.40;99.90;;;;;;5071649;28;20198;-82
2022/04/27 10:34:27;;;;;;;8.97;8.27;;;16.00;99.90;;;;;;5054846;28;20262;-82
2022/04/27 10:36:55;;;;;;;9.97;9.27;;;15.60;99.90;;;;;;5054992;28;20732;-82
2022/04/27 10:39:25;;;;;;;9.70;9.00;;;15.60;99.90;;;;;;5054436;28;20252;-82
2022/04/27 10:42:27;;;;;;;10.70;9.90;;;15.50;99.90;;;;;;5078849;28;20316;-82
2022/04/27 10:45:12;;;;;;;6.23;5.73;;;15.50;99.90;;;;;;5066522;28;20222;-82
2022/04/27 10:47:42;;;;;;;7.00;6.40;;;15.60;99.90;;;;;;5052249;28;20203;-81
2022/04/27 10:50:33;;;;;;;7.63;6.93;;;15.40;99.90;;;;;;5053632;28;20237;-81
2022/04/27 10:53:16;;;;;;;10.53;9.63;;;15.30;99.90;;;;;;5081830;28;20206;-82
2022/04/27 10:55:48;;;;;;;9.30;8.60;;;15.10;99.90;;;;;;5063222;28;20290;-81
2022/04/27 10:58:17;;;;;;;9.87;9.00;;;15.00;99.90;;;;;;5076673;28;20208;-81
2022/04/27 11:01:24;;;;;;;10.77;9.97;;;14.90;99.90;;;;;;5083685;28;20583;-81
2022/04/27 11:03:56;;;;;;;11.50;10.50;;;14.90;99.90;;;;;;5065537;28;20235;-81
2022/04/27 11:06:24;;;;;;;8.83;8.13;;;14.70;99.90;;;;;;5051189;28;20205;-82
2022/04/27 11:09:08;;;;;;;9.20;8.40;;;14.80;99.90;;;;;;5050002;28;20216;-81
2022/04/27 11:11:52;;;;;;;8.00;7.40;;;14.80;99.90;;;;;;5050862;28;20255;-81
2022/04/27 11:14:31;;;;;;;8.40;7.80;;;15.00;99.90;;;;;;5054534;28;20224;-81
2022/04/27 11:16:58;;;;;;;7.70;7.10;;;15.20;99.90;;;;;;5054260;28;20202;-81
2022/04/27 11:19:35;;;;;;;7.03;6.50;;;15.40;99.90;;;;;;5054299;28;20218;-81
2022/04/27 11:22:12;;;;;;;7.47;6.87;;;15.50;99.90;;;;;;5053558;28;20216;-82
2022/04/27 11:24:39;;;;;;;8.60;7.90;;;15.50;99.90;;;;;;5075684;28;20201;-81
2022/04/27 11:27:08;;;;;;;8.87;8.20;;;15.40;99.90;;;;;;5053923;28;20203;-80
2022/04/27 11:29:36;;;;;;;8.60;8.00;;;15.50;99.90;;;;;;5053581;28;20249;-81
2022/04/27 11:32:06;;;;;;;8.10;7.53;;;15.60;99.90;;;;;;5053117;28;20201;-81
2022/04/27 11:34:33;;;;;;;8.30;7.70;;;15.40;99.90;;;;;;5053434;28;20670;-81
2022/04/27 11:37:15;;;;;;;7.30;6.80;;;15.40;99.90;;;;;;5053519;28;20206;-81
2022/04/27 11:39:42;;;;;;;7.30;6.80;;;15.80;99.90;;;;;;5085959;28;20624;-81
2022/04/27 11:42:12;;;;;;;6.70;6.10;;;16.00;99.90;;;;;;5053415;28;20618;-82
2022/04/27 11:44:39;;;;;;;7.33;6.80;;;16.10;99.90;;;;;;5053174;28;20335;-81
2022/04/27 11:47:27;;;;;;;6.93;6.33;;;16.10;99.90;;;;;;5053047;28;20207;-81
2022/04/27 11:49:55;;;;;;;7.07;6.47;;;16.10;99.90;;;;;;5047394;28;20226;-81
2022/04/27 11:52:22;;;;;;;5.97;5.53;;;16.10;99.90;;;;;;5053471;28;20198;-81
2022/04/27 11:54:49;;;;;;;7.30;6.77;;;15.90;99.90;;;;;;5053476;28;20209;-81
2022/04/27 11:57:22;;;;;;;7.10;6.60;;;15.90;99.90;;;;;;5053091;28;20240;-81
2022/04/27 11:59:52;;;;;;;6.87;6.33;;;15.90;99.90;;;;;;5053016;28;20221;-81
2022/04/27 12:02:23;;;;;;;6.63;6.00;;;15.90;99.90;;;;;;5052700;28;20307;-82
2022/04/27 12:04:52;;;;;;;6.30;5.90;;;16.00;99.90;;;;;;5052740;28;20204;-81
2022/04/27 12:07:21;;;;;;;7.10;6.60;;;15.90;99.90;;;;;;5054360;28;20209;-82
2022/04/27 12:09:59;;;;;;;7.90;7.30;;;15.80;99.90;;;;;;5053008;28;20231;-83
2022/04/27 12:12:29;;;;;;;8.70;8.10;;;16.10;99.90;;;;;;5053390;28;20302;-81
2022/04/27 12:14:57;;;;;;;8.33;7.73;;;16.10;99.90;;;;;;5052740;28;20200;-81
2022/04/27 12:17:45;;;;;;;8.40;7.73;;;16.00;99.90;;;;;;5069103;28;20294;-81
2022/04/27 12:20:31;;;;;;;8.50;7.90;;;15.90;99.90;;;;;;5052998;28;20647;-81
2022/04/27 12:23:00;;;;;;;9.37;8.77;;;15.70;99.90;;;;;;5052539;28;20230;-81
2022/04/27 12:25:40;;;;;;;8.87;8.27;;;15.80;99.90;;;;;;5053070;28;20234;-81
2022/04/27 12:28:12;;;;;;;9.10;8.53;;;15.70;99.90;;;;;;5052318;28;20674;-80
2022/04/27 12:30:51;;;;;;;10.20;9.60;;;15.90;99.90;;;;;;5085807;28;20300;-81
2022/04/27 12:33:20;;;;;;;9.60;9.00;;;15.90;99.90;;;;;;5052702;28;20221;-81
2022/04/27 12:38:35;;;;;;;7.63;7.13;;;16.30;99.90;;;;;;5052029;28;20356;-82
2022/04/27 12:41:02;;;;;;;6.80;6.30;;;16.50;99.90;;;;;;5051941;28;20217;-81
2022/04/27 12:43:32;;;;;;;4.90;4.50;;;16.70;99.90;;;;;;5052124;28;20234;-81
2022/04/27 12:46:12;;;;;;;5.17;4.70;;;16.40;99.90;;;;;;5077123;28;20283;-81
2022/04/27 12:48:39;;;;;;;4.50;4.20;;;16.50;99.90;;;;;;5069828;28;20337;-82
2022/04/27 12:51:08;;;;;;;4.97;4.57;;;16.50;99.90;;;;;;5052198;28;20233;-82
2022/04/27 12:53:36;;;;;;;8.60;8.00;;;16.70;99.90;;;;;;5085909;28;20289;-81
2022/04/27 12:56:09;;;;;;;7.60;7.10;;;16.80;99.90;;;;;;5052460;28;20269;-81
2022/04/27 12:58:38;;;;;;;8.13;7.60;;;16.90;99.90;;;;;;5052912;28;20615;-81
2022/04/27 13:01:06;;;;;;;8.13;7.53;;;17.00;99.90;;;;;;5085958;28;20208;-81
2022/04/27 13:03:33;;;;;;;7.53;7.03;;;17.00;99.90;;;;;;5051670;28;20229;-82
2022/04/27 13:06:00;;;;;;;9.27;8.67;;;16.50;99.90;;;;;;5085552;28;20199;-81
2022/04/27 13:08:27;;;;;;;10.33;9.63;;;16.20;99.90;;;;;;5051963;28;20251;-81
2022/04/27 13:13:42;;;;;;;9.07;8.47;;;15.80;99.90;;;;;;5078950;28;20616;-81
2022/04/27 13:16:09;;;;;;;5.57;4.97;;;15.80;99.90;;;;;;5051430;28;20210;-81
2022/04/27 13:18:36;;;;;;;5.00;4.60;;;16.10;99.90;;;;;;5051549;28;20225;-82
2022/04/27 13:21:03;;;;;;;9.47;8.87;;;16.20;99.90;;;;;;5051588;28;20288;-81
2022/04/27 13:23:30;;;;;;;9.13;8.53;;;15.80;99.90;;;;;;5051864;28;20282;-81
2022/04/27 13:25:57;;;;;;;8.60;8.00;;;15.80;99.90;;;;;;5052853;28;20306;-82